Newmilns, United Kingdom
Current Conditions -  °F | °C
As of 7:20 PM on Friday 21 Nov 2014 (Local Time) from EGPK Reporting Station
Light Rain Light Rain  
Wind Chill:   Ceiling: 4900
Heat Index:   Visibility: 6mi
Dew Point:   Wind: 16mph
Humidity: 81%   Direction: 110°ESE
Pressure: 29.8"   Gusts: NA
Location:  55.61°N, 4.32°W
Report Text: EGPK 211920Z 11014KT 9000 -RA FEW015 BKN049 08/05 Q1009
Loading
Personal Weather Stations






























Interactive Weather Map New forecast layout! Learn more

10-Day Weather Forecast

Advertisements
Track Severe Weather on mobile